TimeEDT,TemperatureF,Dew PointF,Humidity,Sea Level PressureIn,VisibilityMPH,Wind Direction,Wind SpeedMPH,Gust SpeedMPH,PrecipitationIn,Events,Conditions,WindDirDegrees,DateUTC
12:53 AM,57.0,55.0,93,30.07,7.0,Calm,Calm,-,N/A,,Overcast,0,2012-10-10 04:53:00
1:53 AM,57.0,55.0,93,30.07,6.0,West,3.5,-,N/A,,Overcast,260,2012-10-10 05:53:00
2:53 AM,57.0,55.0,93,30.06,5.0,Calm,Calm,-,N/A,,Overcast,0,2012-10-10 06:53:00
3:34 AM,55.4,55.4,100,30.05,5.0,WSW,3.5,-,N/A,,Overcast,250,2012-10-10 07:34:00
3:53 AM,55.9,55.0,97,30.04,5.0,Calm,Calm,-,N/A,,Overcast,0,2012-10-10 07:53:00
4:36 AM,57.2,55.4,94,30.04,9.0,SW,3.5,-,N/A,,Overcast,230,2012-10-10 08:36:00
4:53 AM,57.0,55.0,93,30.04,10.0,WSW,3.5,-,N/A,,Overcast,240,2012-10-10 08:53:00
5:53 AM,57.0,54.0,89,30.04,9.0,WSW,4.6,-,N/A,,Overcast,240,2012-10-10 09:53:00
6:35 AM,55.4,53.6,94,30.05,10.0,WSW,4.6,-,N/A,,Overcast,240,2012-10-10 10:35:00
6:48 AM,55.4,53.6,94,30.05,10.0,WSW,3.5,-,N/A,,Overcast,240,2012-10-10 10:48:00
6:53 AM,55.9,54.0,93,30.05,10.0,SW,3.5,-,N/A,,Overcast,230,2012-10-10 10:53:00
7:13 AM,55.4,53.6,94,30.06,8.0,Calm,Calm,-,N/A,,Overcast,0,2012-10-10 11:13:00
7:53 AM,55.9,54.0,93,30.06,7.0,WSW,3.5,-,N/A,,Overcast,240,2012-10-10 11:53:00
8:53 AM,57.9,55.0,90,30.08,7.0,WSW,3.5,-,N/A,,Overcast,250,2012-10-10 12:53:00
9:53 AM,62.1,54.0,75,30.08,10.0,Variable,6.9,-,N/A,,Scattered Clouds,0,2012-10-10 13:53:00
10:10 AM,62.6,51.8,68,30.08,10.0,Variable,6.9,-,N/A,,Mostly Cloudy,0,2012-10-10 14:10:00
10:53 AM,62.1,51.1,67,30.07,10.0,West,10.4,-,N/A,,Mostly Cloudy,260,2012-10-10 14:53:00
11:06 AM,62.6,51.8,68,30.06,10.0,WSW,8.1,-,N/A,,Scattered Clouds,250,2012-10-10 15:06:00
11:53 AM,66.0,51.1,59,30.06,10.0,West,8.1,-,N/A,,Clear,260,2012-10-10 15:53:00
12:53 PM,68.0,51.1,55,30.03,10.0,WSW,8.1,-,N/A,,Clear,250,2012-10-10 16:53:00
1:53 PM,70.0,51.1,51,30.00,10.0,West,4.6,-,N/A,,Clear,260,2012-10-10 17:53:00
2:53 PM,70.0,50.0,49,29.98,10.0,West,5.8,-,N/A,,Clear,260,2012-10-10 18:53:00
3:53 PM,71.1,51.1,49,29.97,10.0,West,5.8,-,N/A,,Clear,270,2012-10-10 19:53:00
4:53 PM,70.0,52.0,53,29.98,10.0,Variable,4.6,-,N/A,,Mostly Cloudy,0,2012-10-10 20:53:00
5:53 PM,69.1,53.1,57,29.98,10.0,WSW,5.8,-,N/A,,Clear,240,2012-10-10 21:53:00
6:53 PM,59.0,54.0,83,30.00,10.0,SSW,3.5,-,N/A,,Clear,210,2012-10-10 22:53:00
7:53 PM,57.0,54.0,89,30.02,10.0,Calm,Calm,-,N/A,,Partly Cloudy,0,2012-10-10 23:53:00
8:53 PM,55.9,53.1,90,30.05,10.0,Calm,Calm,-,N/A,,Clear,0,2012-10-11 00:53:00
9:53 PM,55.0,52.0,89,30.06,10.0,Calm,Calm,-,N/A,,Clear,0,2012-10-11 01:53:00
10:53 PM,54.0,51.1,90,30.08,10.0,Calm,Calm,-,N/A,,Clear,0,2012-10-11 02:53:00
11:53 PM,53.1,51.1,93,30.10,10.0,Calm,Calm,-,N/A,,Clear,0,2012-10-11 03:53:00